マイアミ の空港の天気 - METARとTAF

マイアミ国際空港 ( KMIA / MIA ) - アメリカ合衆国 フロリダ州マイアミ
飛行場実況気象(Metar)
観測時間04/27 02:53 EDT (04/27 06:53 UTC)
風向・風速東南東 3m/s
視程10km以上
天気現象
全天の4割程度の雲 雲底高度 430m
全天の4割程度の雲 雲底高度 610m
全天の8割程度の雲 雲底高度 1830m
気温25.6℃
湿度82%
気圧1012.4hPa
METARKMIA 270653Z 12006KT 10SM SCT014 SCT020 BKN060 26/22 A2990 RMK AO2 SLP124 T02560222 $
過去の天気等 Google飛行場航空写真 Wunderground天気予報

過去48時間のMETAR

飛行場予報(TAF)
発表時間: 4/27 01:39 EDT (4/27 05:39 UTC)
予報対象時間: 27日2時 EDT ~ 28日2時 EDT
風向・風速東南東 4m/s
視程10km以上
全天の4割程度の雲 雲底高度 460m
全天の4割程度の雲 雲底高度 1,520m
27日10時 EDT から
風向・風速南東 5m/s
視程10km以上
全天の4割程度の雲 雲底高度 1,070m
全天の4割程度の雲 雲底高度 1,830m
27日13時 EDT から
風向・風速南南東 6m/s
視程10km以上
全天の4割程度の雲 雲底高度 910m
全天の4割程度の雲 雲底高度 1,830m
27日21時 EDT から
風向・風速東南東 4m/s
視程10km以上
少しの雲 雲底高度 910m
KMIA 270539Z 2706/2806 11007KT P6SM SCT015 SCT050
FM271400 14010KT P6SM SCT035 SCT060
FM271700 15012KT P6SM SCT030 SCT060
FM280100 12008KT P6SM FEW030